sensor_id;sensor_type;location;lat;lon;timestamp;P1;durP1;ratioP1;P2;durP2;ratioP2
16189;SDS011;41754;51.498;7.540;2023-04-25T00:00:24;12.50;;;6.17;;
16189;SDS011;41754;51.498;7.540;2023-04-25T00:02:53;15.37;;;6.20;;
16189;SDS011;41754;51.498;7.540;2023-04-25T00:05:22;12.63;;;6.73;;
16189;SDS011;41754;51.498;7.540;2023-04-25T00:07:50;14.03;;;6.67;;
16189;SDS011;41754;51.498;7.540;2023-04-25T00:10:19;12.13;;;6.50;;
16189;SDS011;41754;51.498;7.540;2023-04-25T00:12:47;12.77;;;6.00;;
16189;SDS011;41754;51.498;7.540;2023-04-25T00:15:15;12.63;;;6.23;;
16189;SDS011;41754;51.498;7.540;2023-04-25T00:17:45;12.87;;;6.33;;
16189;SDS011;41754;51.498;7.540;2023-04-25T00:20:13;12.73;;;6.83;;
16189;SDS011;41754;51.498;7.540;2023-04-25T00:22:41;11.77;;;6.43;;
16189;SDS011;41754;51.498;7.540;2023-04-25T00:25:09;14.60;;;6.83;;
16189;SDS011;41754;51.498;7.540;2023-04-25T00:27:37;13.87;;;6.90;;
16189;SDS011;41754;51.498;7.540;2023-04-25T00:30:06;12.60;;;6.57;;
16189;SDS011;41754;51.498;7.540;2023-04-25T00:32:34;10.37;;;5.47;;
16189;SDS011;41754;51.498;7.540;2023-04-25T00:35:04;12.90;;;6.83;;
16189;SDS011;41754;51.498;7.540;2023-04-25T00:37:33;13.13;;;6.30;;
16189;SDS011;41754;51.498;7.540;2023-04-25T00:40:01;15.00;;;7.30;;
16189;SDS011;41754;51.498;7.540;2023-04-25T00:42:32;12.07;;;5.67;;
16189;SDS011;41754;51.498;7.540;2023-04-25T00:45:04;16.57;;;7.20;;
16189;SDS011;41754;51.498;7.540;2023-04-25T00:47:34;13.17;;;6.93;;
16189;SDS011;41754;51.498;7.540;2023-04-25T00:50:06;17.83;;;7.83;;
16189;SDS011;41754;51.498;7.540;2023-04-25T00:52:35;12.77;;;7.00;;
16189;SDS011;41754;51.498;7.540;2023-04-25T00:55:04;15.00;;;7.77;;
16189;SDS011;41754;51.498;7.540;2023-04-25T00:57:32;13.57;;;7.83;;
16189;SDS011;41754;51.498;7.540;2023-04-25T01:00:01;12.87;;;7.90;;
16189;SDS011;41754;51.498;7.540;2023-04-25T01:02:31;11.10;;;7.80;;
16189;SDS011;41754;51.498;7.540;2023-04-25T01:05:00;13.07;;;7.43;;
16189;SDS011;41754;51.498;7.540;2023-04-25T01:07:29;13.33;;;8.07;;
16189;SDS011;41754;51.498;7.540;2023-04-25T01:09:57;12.87;;;7.57;;
16189;SDS011;41754;51.498;7.540;2023-04-25T01:12:25;15.30;;;8.53;;
16189;SDS011;41754;51.498;7.540;2023-04-25T01:14:53;12.60;;;7.40;;
16189;SDS011;41754;51.498;7.540;2023-04-25T01:17:21;12.87;;;7.97;;
16189;SDS011;41754;51.498;7.540;2023-04-25T01:19:50;10.77;;;7.50;;
16189;SDS011;41754;51.498;7.540;2023-04-25T01:22:19;11.80;;;7.83;;
16189;SDS011;41754;51.498;7.540;2023-04-25T01:24:49;16.47;;;8.57;;
16189;SDS011;41754;51.498;7.540;2023-04-25T01:27:18;10.57;;;7.13;;
16189;SDS011;41754;51.498;7.540;2023-04-25T01:29:47;12.50;;;7.63;;
16189;SDS011;41754;51.498;7.540;2023-04-25T01:32:15;15.03;;;7.63;;
16189;SDS011;41754;51.498;7.540;2023-04-25T01:34:44;12.47;;;7.97;;
16189;SDS011;41754;51.498;7.540;2023-04-25T01:37:12;13.13;;;8.30;;
16189;SDS011;41754;51.498;7.540;2023-04-25T01:39:41;12.10;;;7.97;;
16189;SDS011;41754;51.498;7.540;2023-04-25T01:42:10;12.37;;;9.37;;
16189;SDS011;41754;51.498;7.540;2023-04-25T01:44:38;10.97;;;7.83;;
16189;SDS011;41754;51.498;7.540;2023-04-25T01:47:06;12.87;;;8.40;;
16189;SDS011;41754;51.498;7.540;2023-04-25T01:49:34;13.00;;;8.90;;
16189;SDS011;41754;51.498;7.540;2023-04-25T01:52:02;10.60;;;8.10;;
16189;SDS011;41754;51.498;7.540;2023-04-25T01:54:30;13.43;;;8.97;;
16189;SDS011;41754;51.498;7.540;2023-04-25T01:56:59;13.37;;;8.97;;
16189;SDS011;41754;51.498;7.540;2023-04-25T01:59:29;13.80;;;9.10;;
16189;SDS011;41754;51.498;7.540;2023-04-25T02:02:11;11.57;;;9.00;;
16189;SDS011;41754;51.498;7.540;2023-04-25T02:04:40;11.43;;;8.63;;
16189;SDS011;41754;51.498;7.540;2023-04-25T02:07:08;13.20;;;9.80;;
16189;SDS011;41754;51.498;7.540;2023-04-25T02:09:47;17.00;;;9.83;;
16189;SDS011;41754;51.498;7.540;2023-04-25T02:12:18;12.80;;;9.73;;
16189;SDS011;41754;51.498;7.540;2023-04-25T02:15:03;15.57;;;10.90;;
16189;SDS011;41754;51.498;7.540;2023-04-25T02:17:47;16.03;;;11.67;;
16189;SDS011;41754;51.498;7.540;2023-04-25T02:20:15;19.63;;;12.53;;
16189;SDS011;41754;51.498;7.540;2023-04-25T02:22:43;18.57;;;12.17;;
16189;SDS011;41754;51.498;7.540;2023-04-25T02:25:11;17.47;;;12.10;;
16189;SDS011;41754;51.498;7.540;2023-04-25T02:27:41;16.87;;;12.23;;
16189;SDS011;41754;51.498;7.540;2023-04-25T02:30:10;19.50;;;12.43;;
16189;SDS011;41754;51.498;7.540;2023-04-25T02:32:38;17.70;;;11.53;;
16189;SDS011;41754;51.498;7.540;2023-04-25T02:35:08;18.10;;;11.60;;
16189;SDS011;41754;51.498;7.540;2023-04-25T02:37:37;17.73;;;12.03;;
16189;SDS011;41754;51.498;7.540;2023-04-25T02:40:06;17.00;;;12.50;;
16189;SDS011;41754;51.498;7.540;2023-04-25T02:42:35;16.30;;;11.87;;
16189;SDS011;41754;51.498;7.540;2023-04-25T02:45:05;18.10;;;11.80;;
16189;SDS011;41754;51.498;7.540;2023-04-25T02:47:34;19.00;;;12.80;;
16189;SDS011;41754;51.498;7.540;2023-04-25T02:50:02;19.37;;;12.57;;
16189;SDS011;41754;51.498;7.540;2023-04-25T02:52:31;22.67;;;13.37;;
16189;SDS011;41754;51.498;7.540;2023-04-25T02:55:08;18.37;;;12.73;;
16189;SDS011;41754;51.498;7.540;2023-04-25T02:57:37;20.77;;;14.47;;
16189;SDS011;41754;51.498;7.540;2023-04-25T03:00:07;18.23;;;13.17;;
16189;SDS011;41754;51.498;7.540;2023-04-25T03:02:38;18.97;;;13.50;;
16189;SDS011;41754;51.498;7.540;2023-04-25T03:05:06;22.13;;;13.63;;
16189;SDS011;41754;51.498;7.540;2023-04-25T03:07:35;18.87;;;14.93;;
16189;SDS011;41754;51.498;7.540;2023-04-25T03:10:06;22.23;;;14.67;;
16189;SDS011;41754;51.498;7.540;2023-04-25T03:12:35;19.10;;;13.80;;
16189;SDS011;41754;51.498;7.540;2023-04-25T03:15:04;17.67;;;13.87;;
16189;SDS011;41754;51.498;7.540;2023-04-25T03:17:34;19.23;;;14.87;;
16189;SDS011;41754;51.498;7.540;2023-04-25T03:20:02;18.07;;;13.77;;
16189;SDS011;41754;51.498;7.540;2023-04-25T03:22:31;20.73;;;13.53;;
16189;SDS011;41754;51.498;7.540;2023-04-25T03:24:59;19.17;;;13.53;;
16189;SDS011;41754;51.498;7.540;2023-04-25T03:27:27;18.80;;;13.33;;
16189;SDS011;41754;51.498;7.540;2023-04-25T03:29:55;21.03;;;14.43;;
16189;SDS011;41754;51.498;7.540;2023-04-25T03:32:23;16.83;;;12.07;;
16189;SDS011;41754;51.498;7.540;2023-04-25T03:34:52;17.33;;;12.07;;
16189;SDS011;41754;51.498;7.540;2023-04-25T03:37:22;15.57;;;11.07;;
16189;SDS011;41754;51.498;7.540;2023-04-25T03:39:50;19.53;;;10.80;;
16189;SDS011;41754;51.498;7.540;2023-04-25T03:42:18;19.53;;;11.40;;
16189;SDS011;41754;51.498;7.540;2023-04-25T03:44:49;17.27;;;10.97;;
16189;SDS011;41754;51.498;7.540;2023-04-25T03:47:19;16.53;;;10.10;;
16189;SDS011;41754;51.498;7.540;2023-04-25T03:49:48;16.87;;;10.67;;
16189;SDS011;41754;51.498;7.540;2023-04-25T03:52:22;17.27;;;11.13;;
16189;SDS011;41754;51.498;7.540;2023-04-25T03:54:50;22.10;;;11.47;;
16189;SDS011;41754;51.498;7.540;2023-04-25T03:57:22;18.57;;;10.10;;
16189;SDS011;41754;51.498;7.540;2023-04-25T03:59:50;16.37;;;9.93;;
16189;SDS011;41754;51.498;7.540;2023-04-25T04:02:18;15.17;;;10.10;;
16189;SDS011;41754;51.498;7.540;2023-04-25T04:04:47;15.77;;;9.20;;
16189;SDS011;41754;51.498;7.540;2023-04-25T04:07:16;16.87;;;8.93;;
16189;SDS011;41754;51.498;7.540;2023-04-25T04:09:48;20.50;;;10.27;;
16189;SDS011;41754;51.498;7.540;2023-04-25T04:12:24;14.50;;;9.13;;
16189;SDS011;41754;51.498;7.540;2023-04-25T04:14:52;17.07;;;9.30;;
16189;SDS011;41754;51.498;7.540;2023-04-25T04:17:20;18.90;;;8.73;;
16189;SDS011;41754;51.498;7.540;2023-04-25T04:19:50;17.43;;;8.87;;
16189;SDS011;41754;51.498;7.540;2023-04-25T04:22:20;18.60;;;8.50;;
16189;SDS011;41754;51.498;7.540;2023-04-25T04:24:51;14.77;;;9.17;;
16189;SDS011;41754;51.498;7.540;2023-04-25T04:27:29;19.87;;;9.10;;
16189;SDS011;41754;51.498;7.540;2023-04-25T04:30:23;12.77;;;5.23;;
16189;SDS011;41754;51.498;7.540;2023-04-25T04:32:57;8.63;;;4.50;;
16189;SDS011;41754;51.498;7.540;2023-04-25T04:35:28;11.27;;;4.30;;
16189;SDS011;41754;51.498;7.540;2023-04-25T04:37:55;10.33;;;4.63;;
16189;SDS011;41754;51.498;7.540;2023-04-25T04:40:36;10.27;;;3.90;;
16189;SDS011;41754;51.498;7.540;2023-04-25T04:43:22;10.17;;;3.97;;
16189;SDS011;41754;51.498;7.540;2023-04-25T04:46:09;8.73;;;4.23;;
16189;SDS011;41754;51.498;7.540;2023-04-25T04:48:57;10.00;;;3.73;;
16189;SDS011;41754;51.498;7.540;2023-04-25T04:51:52;12.03;;;4.20;;
16189;SDS011;41754;51.498;7.540;2023-04-25T04:54:36;12.27;;;3.83;;
16189;SDS011;41754;51.498;7.540;2023-04-25T04:57:34;7.90;;;3.33;;
16189;SDS011;41754;51.498;7.540;2023-04-25T05:00:29;7.93;;;4.37;;
16189;SDS011;41754;51.498;7.540;2023-04-25T05:03:18;8.40;;;3.70;;
16189;SDS011;41754;51.498;7.540;2023-04-25T05:06:02;9.10;;;3.67;;
16189;SDS011;41754;51.498;7.540;2023-04-25T05:08:43;8.03;;;3.60;;
16189;SDS011;41754;51.498;7.540;2023-04-25T05:11:25;12.27;;;4.23;;
16189;SDS011;41754;51.498;7.540;2023-04-25T05:14:02;6.47;;;3.50;;
16189;SDS011;41754;51.498;7.540;2023-04-25T05:16:51;8.97;;;3.93;;
16189;SDS011;41754;51.498;7.540;2023-04-25T05:19:42;11.83;;;4.30;;
16189;SDS011;41754;51.498;7.540;2023-04-25T05:22:36;8.93;;;4.03;;
16189;SDS011;41754;51.498;7.540;2023-04-25T05:25:10;12.07;;;4.67;;
16189;SDS011;41754;51.498;7.540;2023-04-25T05:28:05;8.73;;;4.33;;
16189;SDS011;41754;51.498;7.540;2023-04-25T05:30:43;10.90;;;4.40;;
16189;SDS011;41754;51.498;7.540;2023-04-25T05:33:29;11.30;;;4.50;;
16189;SDS011;41754;51.498;7.540;2023-04-25T05:35:58;13.07;;;5.03;;
16189;SDS011;41754;51.498;7.540;2023-04-25T05:38:26;10.40;;;4.67;;
16189;SDS011;41754;51.498;7.540;2023-04-25T05:41:23;13.00;;;5.13;;
16189;SDS011;41754;51.498;7.540;2023-04-25T05:44:06;9.30;;;4.73;;
16189;SDS011;41754;51.498;7.540;2023-04-25T05:46:47;8.30;;;3.93;;
16189;SDS011;41754;51.498;7.540;2023-04-25T05:49:38;12.87;;;4.10;;
16189;SDS011;41754;51.498;7.540;2023-04-25T05:52:22;12.73;;;5.47;;
16189;SDS011;41754;51.498;7.540;2023-04-25T05:55:04;11.00;;;5.07;;
16189;SDS011;41754;51.498;7.540;2023-04-25T05:57:33;11.80;;;4.87;;
16189;SDS011;41754;51.498;7.540;2023-04-25T06:00:01;14.67;;;5.13;;
16189;SDS011;41754;51.498;7.540;2023-04-25T06:02:43;11.73;;;4.90;;
16189;SDS011;41754;51.498;7.540;2023-04-25T06:05:13;12.97;;;5.10;;
16189;SDS011;41754;51.498;7.540;2023-04-25T06:07:43;12.93;;;4.73;;
16189;SDS011;41754;51.498;7.540;2023-04-25T06:10:11;12.97;;;4.33;;
16189;SDS011;41754;51.498;7.540;2023-04-25T06:12:39;13.43;;;4.60;;
16189;SDS011;41754;51.498;7.540;2023-04-25T06:15:08;16.60;;;5.00;;
16189;SDS011;41754;51.498;7.540;2023-04-25T06:17:53;13.97;;;5.00;;
16189;SDS011;41754;51.498;7.540;2023-04-25T06:20:22;12.67;;;5.00;;
16189;SDS011;41754;51.498;7.540;2023-04-25T06:22:52;14.43;;;4.73;;
16189;SDS011;41754;51.498;7.540;2023-04-25T06:25:28;13.07;;;5.07;;
16189;SDS011;41754;51.498;7.540;2023-04-25T06:27:58;10.90;;;5.03;;
16189;SDS011;41754;51.498;7.540;2023-04-25T06:30:26;15.37;;;5.27;;
16189;SDS011;41754;51.498;7.540;2023-04-25T06:33:02;16.50;;;5.17;;
16189;SDS011;41754;51.498;7.540;2023-04-25T06:35:31;17.27;;;6.57;;
16189;SDS011;41754;51.498;7.540;2023-04-25T06:38:02;14.73;;;5.27;;
16189;SDS011;41754;51.498;7.540;2023-04-25T06:40:31;12.70;;;4.93;;
16189;SDS011;41754;51.498;7.540;2023-04-25T06:42:59;15.90;;;6.13;;
16189;SDS011;41754;51.498;7.540;2023-04-25T06:45:46;10.80;;;4.77;;
16189;SDS011;41754;51.498;7.540;2023-04-25T06:48:25;13.20;;;4.83;;
16189;SDS011;41754;51.498;7.540;2023-04-25T06:50:53;13.70;;;5.60;;
16189;SDS011;41754;51.498;7.540;2023-04-25T06:53:24;16.47;;;6.40;;
16189;SDS011;41754;51.498;7.540;2023-04-25T06:55:58;14.93;;;5.87;;
16189;SDS011;41754;51.498;7.540;2023-04-25T06:58:38;16.30;;;6.30;;
16189;SDS011;41754;51.498;7.540;2023-04-25T07:01:19;16.90;;;6.80;;
16189;SDS011;41754;51.498;7.540;2023-04-25T07:03:52;15.83;;;6.27;;
16189;SDS011;41754;51.498;7.540;2023-04-25T07:06:23;19.63;;;6.27;;
16189;SDS011;41754;51.498;7.540;2023-04-25T07:08:55;20.63;;;13.17;;
16189;SDS011;41754;51.498;7.540;2023-04-25T07:11:23;17.60;;;5.73;;
16189;SDS011;41754;51.498;7.540;2023-04-25T07:13:51;13.53;;;5.23;;
16189;SDS011;41754;51.498;7.540;2023-04-25T07:16:19;16.10;;;5.33;;
16189;SDS011;41754;51.498;7.540;2023-04-25T07:18:52;13.80;;;4.77;;
16189;SDS011;41754;51.498;7.540;2023-04-25T07:21:20;15.63;;;5.60;;
16189;SDS011;41754;51.498;7.540;2023-04-25T07:23:50;17.47;;;4.90;;
16189;SDS011;41754;51.498;7.540;2023-04-25T07:26:23;13.50;;;5.17;;
16189;SDS011;41754;51.498;7.540;2023-04-25T07:29:21;12.43;;;4.33;;
16189;SDS011;41754;51.498;7.540;2023-04-25T07:31:49;11.73;;;4.23;;
16189;SDS011;41754;51.498;7.540;2023-04-25T07:34:20;13.63;;;4.60;;
16189;SDS011;41754;51.498;7.540;2023-04-25T07:36:48;14.97;;;4.03;;
16189;SDS011;41754;51.498;7.540;2023-04-25T07:39:17;13.03;;;3.53;;
16189;SDS011;41754;51.498;7.540;2023-04-25T07:41:46;11.33;;;4.03;;
16189;SDS011;41754;51.498;7.540;2023-04-25T07:44:20;9.07;;;3.87;;
16189;SDS011;41754;51.498;7.540;2023-04-25T07:46:48;13.23;;;4.60;;
16189;SDS011;41754;51.498;7.540;2023-04-25T07:49:18;13.30;;;4.60;;
16189;SDS011;41754;51.498;7.540;2023-04-25T07:51:47;13.48;;;4.45;;
16189;SDS011;41754;51.498;7.540;2023-04-25T07:54:18;13.93;;;5.20;;
16189;SDS011;41754;51.498;7.540;2023-04-25T07:56:51;12.93;;;4.30;;
16189;SDS011;41754;51.498;7.540;2023-04-25T07:59:25;15.77;;;4.27;;
16189;SDS011;41754;51.498;7.540;2023-04-25T08:01:57;11.73;;;3.97;;
16189;SDS011;41754;51.498;7.540;2023-04-25T08:04:25;14.02;;;4.53;;
16189;SDS011;41754;51.498;7.540;2023-04-25T08:07:02;10.35;;;4.22;;
16189;SDS011;41754;51.498;7.540;2023-04-25T08:09:37;14.23;;;4.07;;
16189;SDS011;41754;51.498;7.540;2023-04-25T08:12:10;14.98;;;4.57;;
16189;SDS011;41754;51.498;7.540;2023-04-25T08:14:39;11.20;;;4.53;;
16189;SDS011;41754;51.498;7.540;2023-04-25T08:17:08;13.03;;;5.33;;
16189;SDS011;41754;51.498;7.540;2023-04-25T08:19:39;14.60;;;5.50;;
16189;SDS011;41754;51.498;7.540;2023-04-25T08:22:16;10.50;;;4.95;;
16189;SDS011;41754;51.498;7.540;2023-04-25T08:24:51;8.32;;;3.15;;
16189;SDS011;41754;51.498;7.540;2023-04-25T08:27:19;11.23;;;3.60;;
16189;SDS011;41754;51.498;7.540;2023-04-25T08:29:48;12.45;;;3.63;;
16189;SDS011;41754;51.498;7.540;2023-04-25T08:32:16;11.70;;;3.05;;
16189;SDS011;41754;51.498;7.540;2023-04-25T08:35:00;9.88;;;3.58;;
16189;SDS011;41754;51.498;7.540;2023-04-25T08:37:30;7.82;;;2.65;;
16189;SDS011;41754;51.498;7.540;2023-04-25T08:40:04;11.25;;;3.22;;
16189;SDS011;41754;51.498;7.540;2023-04-25T08:42:45;10.20;;;3.10;;
16189;SDS011;41754;51.498;7.540;2023-04-25T08:45:14;9.07;;;3.25;;
16189;SDS011;41754;51.498;7.540;2023-04-25T08:47:42;13.55;;;3.53;;
16189;SDS011;41754;51.498;7.540;2023-04-25T08:50:15;13.55;;;3.00;;
16189;SDS011;41754;51.498;7.540;2023-04-25T08:52:47;10.45;;;2.88;;
16189;SDS011;41754;51.498;7.540;2023-04-25T08:55:19;9.55;;;2.95;;
16189;SDS011;41754;51.498;7.540;2023-04-25T08:57:53;8.88;;;3.00;;
16189;SDS011;41754;51.498;7.540;2023-04-25T09:00:23;8.13;;;2.67;;
16189;SDS011;41754;51.498;7.540;2023-04-25T09:02:51;8.95;;;3.08;;
16189;SDS011;41754;51.498;7.540;2023-04-25T09:05:21;14.32;;;2.80;;
16189;SDS011;41754;51.498;7.540;2023-04-25T09:07:53;8.30;;;2.60;;
16189;SDS011;41754;51.498;7.540;2023-04-25T09:10:22;7.85;;;2.65;;
16189;SDS011;41754;51.498;7.540;2023-04-25T09:13:02;9.70;;;2.40;;
16189;SDS011;41754;51.498;7.540;2023-04-25T09:15:46;9.23;;;2.65;;
16189;SDS011;41754;51.498;7.540;2023-04-25T09:18:29;7.05;;;2.60;;
16189;SDS011;41754;51.498;7.540;2023-04-25T09:21:04;6.80;;;2.30;;
16189;SDS011;41754;51.498;7.540;2023-04-25T09:23:43;8.23;;;2.75;;
16189;SDS011;41754;51.498;7.540;2023-04-25T09:26:14;9.63;;;3.15;;
16189;SDS011;41754;51.498;7.540;2023-04-25T09:28:44;10.88;;;3.42;;
16189;SDS011;41754;51.498;7.540;2023-04-25T09:31:21;8.30;;;3.33;;
16189;SDS011;41754;51.498;7.540;2023-04-25T09:33:58;6.32;;;2.40;;
16189;SDS011;41754;51.498;7.540;2023-04-25T09:36:29;7.65;;;2.40;;
16189;SDS011;41754;51.498;7.540;2023-04-25T09:39:03;7.32;;;2.83;;
16189;SDS011;41754;51.498;7.540;2023-04-25T09:41:46;11.75;;;3.20;;
16189;SDS011;41754;51.498;7.540;2023-04-25T09:44:14;8.15;;;2.72;;
16189;SDS011;41754;51.498;7.540;2023-04-25T09:46:44;7.60;;;2.80;;
16189;SDS011;41754;51.498;7.540;2023-04-25T09:49:22;9.68;;;2.88;;
16189;SDS011;41754;51.498;7.540;2023-04-25T09:52:06;11.80;;;2.95;;
16189;SDS011;41754;51.498;7.540;2023-04-25T09:54:45;7.05;;;2.30;;
16189;SDS011;41754;51.498;7.540;2023-04-25T09:57:19;8.60;;;2.25;;
16189;SDS011;41754;51.498;7.540;2023-04-25T09:59:50;8.30;;;2.72;;
16189;SDS011;41754;51.498;7.540;2023-04-25T10:02:21;6.22;;;2.30;;
16189;SDS011;41754;51.498;7.540;2023-04-25T10:04:53;6.95;;;2.20;;
16189;SDS011;41754;51.498;7.540;2023-04-25T10:07:30;7.43;;;1.63;;
16189;SDS011;41754;51.498;7.540;2023-04-25T10:10:02;9.32;;;2.45;;
16189;SDS011;41754;51.498;7.540;2023-04-25T10:12:32;5.40;;;2.05;;
16189;SDS011;41754;51.498;7.540;2023-04-25T10:15:01;14.25;;;6.65;;
16189;SDS011;41754;51.498;7.540;2023-04-25T10:17:31;6.47;;;2.25;;
16189;SDS011;41754;51.498;7.540;2023-04-25T10:20:01;5.47;;;2.30;;
16189;SDS011;41754;51.498;7.540;2023-04-25T10:22:34;6.43;;;2.28;;
16189;SDS011;41754;51.498;7.540;2023-04-25T10:25:06;12.45;;;2.38;;
16189;SDS011;41754;51.498;7.540;2023-04-25T10:27:35;7.88;;;1.92;;
16189;SDS011;41754;51.498;7.540;2023-04-25T10:30:05;4.18;;;1.83;;
16189;SDS011;41754;51.498;7.540;2023-04-25T10:32:37;3.67;;;1.55;;
16189;SDS011;41754;51.498;7.540;2023-04-25T10:35:13;6.70;;;2.03;;
16189;SDS011;41754;51.498;7.540;2023-04-25T10:37:56;7.80;;;2.17;;
16189;SDS011;41754;51.498;7.540;2023-04-25T10:40:26;6.53;;;1.95;;
16189;SDS011;41754;51.498;7.540;2023-04-25T10:42:54;4.15;;;1.65;;
16189;SDS011;41754;51.498;7.540;2023-04-25T10:45:23;4.00;;;1.83;;
16189;SDS011;41754;51.498;7.540;2023-04-25T10:47:51;9.48;;;1.95;;
16189;SDS011;41754;51.498;7.540;2023-04-25T10:50:19;5.32;;;1.52;;
16189;SDS011;41754;51.498;7.540;2023-04-25T10:52:47;4.30;;;1.60;;
16189;SDS011;41754;51.498;7.540;2023-04-25T10:55:15;10.35;;;2.53;;
16189;SDS011;41754;51.498;7.540;2023-04-25T10:57:44;6.28;;;1.80;;
16189;SDS011;41754;51.498;7.540;2023-04-25T11:00:15;9.38;;;2.17;;
16189;SDS011;41754;51.498;7.540;2023-04-25T11:02:45;7.78;;;1.83;;
16189;SDS011;41754;51.498;7.540;2023-04-25T11:05:16;4.78;;;1.60;;
16189;SDS011;41754;51.498;7.540;2023-04-25T11:07:50;7.43;;;1.40;;
16189;SDS011;41754;51.498;7.540;2023-04-25T11:10:33;5.63;;;1.67;;
16189;SDS011;41754;51.498;7.540;2023-04-25T11:13:03;5.35;;;1.33;;
16189;SDS011;41754;51.498;7.540;2023-04-25T11:15:31;4.10;;;1.40;;
16189;SDS011;41754;51.498;7.540;2023-04-25T11:17:59;5.95;;;1.35;;
16189;SDS011;41754;51.498;7.540;2023-04-25T11:20:27;4.55;;;1.60;;
16189;SDS011;41754;51.498;7.540;2023-04-25T11:22:57;4.50;;;1.45;;
16189;SDS011;41754;51.498;7.540;2023-04-25T11:25:26;6.60;;;1.90;;
16189;SDS011;41754;51.498;7.540;2023-04-25T11:27:54;5.25;;;1.50;;
16189;SDS011;41754;51.498;7.540;2023-04-25T11:30:25;4.40;;;1.60;;
16189;SDS011;41754;51.498;7.540;2023-04-25T11:32:53;4.75;;;1.77;;
16189;SDS011;41754;51.498;7.540;2023-04-25T11:35:21;4.78;;;1.63;;
16189;SDS011;41754;51.498;7.540;2023-04-25T11:37:51;7.28;;;1.83;;
16189;SDS011;41754;51.498;7.540;2023-04-25T11:40:19;4.50;;;1.55;;
16189;SDS011;41754;51.498;7.540;2023-04-25T11:42:48;5.28;;;1.40;;
16189;SDS011;41754;51.498;7.540;2023-04-25T11:45:18;4.70;;;1.85;;
16189;SDS011;41754;51.498;7.540;2023-04-25T11:47:47;3.38;;;1.27;;
16189;SDS011;41754;51.498;7.540;2023-04-25T11:50:16;3.75;;;1.58;;
16189;SDS011;41754;51.498;7.540;2023-04-25T11:52:44;5.13;;;1.88;;
16189;SDS011;41754;51.498;7.540;2023-04-25T11:55:14;6.47;;;2.13;;
16189;SDS011;41754;51.498;7.540;2023-04-25T11:57:43;4.07;;;1.80;;
16189;SDS011;41754;51.498;7.540;2023-04-25T12:00:15;2.80;;;1.13;;
16189;SDS011;41754;51.498;7.540;2023-04-25T12:02:50;4.25;;;1.25;;
16189;SDS011;41754;51.498;7.540;2023-04-25T12:05:23;3.28;;;1.20;;
16189;SDS011;41754;51.498;7.540;2023-04-25T12:08:09;3.00;;;1.02;;
16189;SDS011;41754;51.498;7.540;2023-04-25T12:10:38;2.15;;;1.00;;
16189;SDS011;41754;51.498;7.540;2023-04-25T12:13:17;4.32;;;1.35;;
16189;SDS011;41754;51.498;7.540;2023-04-25T12:15:47;6.47;;;1.40;;
16189;SDS011;41754;51.498;7.540;2023-04-25T12:18:19;2.92;;;1.23;;
16189;SDS011;41754;51.498;7.540;2023-04-25T12:20:48;4.35;;;1.20;;
16189;SDS011;41754;51.498;7.540;2023-04-25T12:23:16;2.90;;;1.38;;
16189;SDS011;41754;51.498;7.540;2023-04-25T12:25:44;2.90;;;1.60;;
16189;SDS011;41754;51.498;7.540;2023-04-25T12:28:14;2.42;;;1.05;;
16189;SDS011;41754;51.498;7.540;2023-04-25T12:30:57;2.22;;;1.30;;
16189;SDS011;41754;51.498;7.540;2023-04-25T12:33:29;3.10;;;1.23;;
16189;SDS011;41754;51.498;7.540;2023-04-25T12:35:58;4.18;;;1.38;;
16189;SDS011;41754;51.498;7.540;2023-04-25T12:38:28;3.63;;;1.20;;
16189;SDS011;41754;51.498;7.540;2023-04-25T12:40:58;2.63;;;1.00;;
16189;SDS011;41754;51.498;7.540;2023-04-25T12:43:26;3.15;;;1.20;;
16189;SDS011;41754;51.498;7.540;2023-04-25T12:45:54;2.45;;;1.60;;
16189;SDS011;41754;51.498;7.540;2023-04-25T12:48:23;3.88;;;1.10;;
16189;SDS011;41754;51.498;7.540;2023-04-25T12:50:52;4.50;;;1.33;;
16189;SDS011;41754;51.498;7.540;2023-04-25T12:53:21;3.15;;;1.60;;
16189;SDS011;41754;51.498;7.540;2023-04-25T12:55:50;2.17;;;1.10;;
16189;SDS011;41754;51.498;7.540;2023-04-25T12:58:18;3.20;;;1.10;;
16189;SDS011;41754;51.498;7.540;2023-04-25T13:00:47;2.80;;;1.02;;
16189;SDS011;41754;51.498;7.540;2023-04-25T13:03:15;2.05;;;1.00;;
16189;SDS011;41754;51.498;7.540;2023-04-25T13:05:44;2.13;;;1.27;;
16189;SDS011;41754;51.498;7.540;2023-04-25T13:08:14;3.10;;;1.30;;
16189;SDS011;41754;51.498;7.540;2023-04-25T13:10:42;3.50;;;1.20;;
16189;SDS011;41754;51.498;7.540;2023-04-25T13:13:09;3.65;;;1.17;;
16189;SDS011;41754;51.498;7.540;2023-04-25T13:15:37;2.67;;;1.23;;
16189;SDS011;41754;51.498;7.540;2023-04-25T13:18:06;4.93;;;1.08;;
16189;SDS011;41754;51.498;7.540;2023-04-25T13:20:34;2.05;;;1.05;;
16189;SDS011;41754;51.498;7.540;2023-04-25T13:23:02;1.98;;;0.90;;
16189;SDS011;41754;51.498;7.540;2023-04-25T13:25:31;1.23;;;0.80;;
16189;SDS011;41754;51.498;7.540;2023-04-25T13:27:59;4.70;;;1.35;;
16189;SDS011;41754;51.498;7.540;2023-04-25T13:30:27;1.95;;;0.90;;
16189;SDS011;41754;51.498;7.540;2023-04-25T13:32:56;3.83;;;1.30;;
16189;SDS011;41754;51.498;7.540;2023-04-25T13:35:29;4.00;;;1.35;;
16189;SDS011;41754;51.498;7.540;2023-04-25T13:37:58;4.28;;;1.77;;
16189;SDS011;41754;51.498;7.540;2023-04-25T13:40:26;3.92;;;1.15;;
16189;SDS011;41754;51.498;7.540;2023-04-25T13:42:56;3.63;;;1.27;;
16189;SDS011;41754;51.498;7.540;2023-04-25T13:45:24;4.20;;;1.40;;
16189;SDS011;41754;51.498;7.540;2023-04-25T13:47:52;2.50;;;1.40;;
16189;SDS011;41754;51.498;7.540;2023-04-25T13:50:20;3.05;;;1.67;;
16189;SDS011;41754;51.498;7.540;2023-04-25T13:52:48;9.70;;;7.20;;
16189;SDS011;41754;51.498;7.540;2023-04-25T13:55:16;3.28;;;1.27;;
16189;SDS011;41754;51.498;7.540;2023-04-25T13:57:44;2.58;;;1.25;;
16189;SDS011;41754;51.498;7.540;2023-04-25T14:00:15;2.20;;;1.00;;
16189;SDS011;41754;51.498;7.540;2023-04-25T14:02:43;4.05;;;1.67;;
16189;SDS011;41754;51.498;7.540;2023-04-25T14:05:14;4.07;;;1.52;;
16189;SDS011;41754;51.498;7.540;2023-04-25T14:07:42;5.18;;;1.55;;
16189;SDS011;41754;51.498;7.540;2023-04-25T14:10:10;5.18;;;1.20;;
16189;SDS011;41754;51.498;7.540;2023-04-25T14:12:38;5.60;;;1.42;;
16189;SDS011;41754;51.498;7.540;2023-04-25T14:15:06;4.10;;;1.30;;
16189;SDS011;41754;51.498;7.540;2023-04-25T14:17:36;2.13;;;1.10;;
16189;SDS011;41754;51.498;7.540;2023-04-25T14:20:04;4.90;;;1.35;;
16189;SDS011;41754;51.498;7.540;2023-04-25T14:22:34;1.75;;;1.08;;
16189;SDS011;41754;51.498;7.540;2023-04-25T14:25:02;5.05;;;1.75;;
16189;SDS011;41754;51.498;7.540;2023-04-25T14:27:30;5.30;;;1.40;;
16189;SDS011;41754;51.498;7.540;2023-04-25T14:29:58;4.60;;;1.73;;
16189;SDS011;41754;51.498;7.540;2023-04-25T14:32:26;3.00;;;1.20;;
16189;SDS011;41754;51.498;7.540;2023-04-25T14:34:55;3.05;;;1.25;;
16189;SDS011;41754;51.498;7.540;2023-04-25T14:37:23;4.18;;;1.70;;
16189;SDS011;41754;51.498;7.540;2023-04-25T14:39:51;1.30;;;1.00;;
16189;SDS011;41754;51.498;7.540;2023-04-25T14:42:19;2.22;;;1.50;;
16189;SDS011;41754;51.498;7.540;2023-04-25T14:44:47;3.42;;;1.40;;
16189;SDS011;41754;51.498;7.540;2023-04-25T14:47:15;4.40;;;1.70;;
16189;SDS011;41754;51.498;7.540;2023-04-25T14:49:43;3.92;;;1.40;;
16189;SDS011;41754;51.498;7.540;2023-04-25T14:52:18;2.97;;;1.25;;
16189;SDS011;41754;51.498;7.540;2023-04-25T14:54:46;4.53;;;1.50;;
16189;SDS011;41754;51.498;7.540;2023-04-25T14:57:14;4.30;;;1.35;;
16189;SDS011;41754;51.498;7.540;2023-04-25T14:59:42;2.47;;;1.13;;
16189;SDS011;41754;51.498;7.540;2023-04-25T15:02:11;3.58;;;1.23;;
16189;SDS011;41754;51.498;7.540;2023-04-25T15:04:39;2.33;;;1.25;;